METAR AND TAF INFORMATION
METAR FOR KALB
ADDS - METARS form results

(0858 UTC 20 October 2019)
Data provider http://aviationweather.gov/metar/data/
 
METAR text: KALB 200851Z 34003KT 1 1/2SM R01/2000VP6000FT BCFG BR BKN001 BKN250 02/00 A3005 RMK AO2 SLP176 VIS 3/4V2 BCFG ALQDS I1000 I3000 T00170000 58002
Conditions at: KALB (ALBANY , NY, US) observed 0851 UTC 20 October 2019
Temperature: 1.7°C (35°F)
Dewpoint: 0.0°C (32°F) [RH = 88%]
Pressure (altimeter): 30.05 inches Hg (1017.7 mb)
[Sea-level pressure: 1017.6 mb]
Winds: from the NNW (340 degrees) at 3 MPH (3 knots; 1.5 m/s)
Visibility: 1.50 miles (2.41 km)
Ceiling: 100 feet AGL
Clouds: broken clouds at 100 feet AGL
broken clouds at 25000 feet AGL
Weather: BCFG BR  (patches of fog, mist)

METAR text: KALB 200840Z 00000KT 1/2SM R01/5000VP6000FT FG VV002 02/00 A3004 RMK AO2 VIS 1/4V1 T00170000
Conditions at: KALB (ALBANY , NY, US) observed 0840 UTC 20 October 2019
Temperature: 1.7°C (35°F)
Dewpoint: 0.0°C (32°F) [RH = 88%]
Pressure (altimeter): 30.04 inches Hg (1017.4 mb)
Winds: calm
Visibility: 0.50 miles (0.80 km)
Ceiling: indefinite ceiling with vertical visibility of 200 feet AGL
Clouds: obscured sky
Weather: FG  (fog)

METAR text: KALB 200832Z 00000KT 1 1/2SM BCFG BR SCT001 BKN250 02/01 A3004 RMK AO2 VIS 3/4V2 BCFG ALQDS T00220006
Conditions at: KALB (ALBANY , NY, US) observed 0832 UTC 20 October 2019
Temperature: 2.2°C (36°F)
Dewpoint: 0.6°C (33°F) [RH = 89%]
Pressure (altimeter): 30.04 inches Hg (1017.4 mb)
Winds: calm
Visibility: 1.50 miles (2.41 km)
Ceiling: 25000 feet AGL
Clouds: scattered clouds at 100 feet AGL
broken clouds at 25000 feet AGL
Weather: BCFG BR  (patches of fog, mist)

METAR text: KALB 200818Z 00000KT 2 1/2SM R01/5000VP6000FT BCFG BR SCT001 BKN250 02/00 A3004 RMK AO2 VIS 2V4 BCFG ALQDS T00170000
Conditions at: KALB (ALBANY , NY, US) observed 0818 UTC 20 October 2019
Temperature: 1.7°C (35°F)
Dewpoint: 0.0°C (32°F) [RH = 88%]
Pressure (altimeter): 30.04 inches Hg (1017.4 mb)
Winds: calm
Visibility: 2.50 miles (4.02 km)
Ceiling: 25000 feet AGL
Clouds: scattered clouds at 100 feet AGL
broken clouds at 25000 feet AGL
Weather: BCFG BR  (patches of fog, mist)

Forecast for: KALB (ALBANY , NY, US)
Text: KALB 200753Z 2008/2106 00000KT 3SM BR SCT250
Forecast period: 0800 to 1000 UTC 20 October 2019
Forecast type: FROM: standard forecast or significant change
Winds: calm
Visibility: 3 miles (5 km)
Ceiling: at least 12,000 feet AGL
Clouds: scattered clouds at 25000 feet AGL
Weather: BR  (mist)
Text: TEMPO 2008/2010 3/4SM BR VV002
Forecast period: 0800 to 1000 UTC 20 October 2019
Forecast type: TEMPORARY: The following changes expected for less than half the time period
Visibility: 0.75 miles (1.21 km)
Ceiling: indefinite ceiling with vertical visibility of 200 feet AGL
Clouds: obscured sky
Weather: BR  (mist)
Text: FM201000 VRB03KT P6SM BKN250
Forecast period: 1000 to 1700 UTC 20 October 2019
Forecast type: FROM: standard forecast or significant change
Winds: variable direction winds at 3 MPH (3 knots; 1.5 m/s)
Visibility: 6 or more miles 10+ km)
Ceiling: 25000 feet AGL
Clouds: broken clouds at 25000 feet AGL
Weather: no significant weather forecast for this period
Text: FM201700 17005KT P6SM BKN100 OVC250
Forecast period: 1700 to 2300 UTC 20 October 2019
Forecast type: FROM: standard forecast or significant change
Winds: from the S (170 degrees) at 6 MPH (5 knots; 2.6 m/s)
Visibility: 6 or more miles 10+ km)
Ceiling: 10000 feet AGL
Clouds: broken clouds at 10000 feet AGL
overcast cloud deck at 25000 feet AGL
Weather: no significant weather forecast for this period
Text: PROB30 2017/2023 6SM -SHRA BKN050 OVC080
Forecast period: 1700 to 2300 UTC 20 October 2019
Forecast type: PROBABLE: 30 percent likelihood of the following during this time
Visibility: 6 miles (10 km)
Ceiling: 5000 feet AGL
Clouds: broken clouds at 5000 feet AGL
overcast cloud deck at 8000 feet AGL
Weather: -SHRA  (light rain showers)
Text: FM202300 VRB03KT P6SM BKN050 BKN100
Forecast period: 2300 UTC 20 October 2019 to 0600 UTC 21 October 2019
Forecast type: FROM: standard forecast or significant change
Winds: variable direction winds at 3 MPH (3 knots; 1.5 m/s)
Visibility: 6 or more miles 10+ km)
Ceiling: 5000 feet AGL
Clouds: broken clouds at 5000 feet AGL
broken clouds at 10000 feet AGL
Weather: no significant weather forecast for this period

 AIRPORT MAP

 RUNWAY INFORMATION
Runway 01 Runway length 7200 ft Runway width 150 ft
Runway elevation 285 ft Runway displaced threshold 0 ft Runway heading 358
Runway 19 Runway length 7200 ft Runway width 150 ft
Runway elevation 279 ft Runway displaced threshold 0 ft Runway heading 178
Runway 10 Runway length 7200 ft Runway width 150 ft
Runway elevation 277 ft Runway displaced threshold 0 ft Runway heading 88
Runway 28 Runway length 7200 ft Runway width 150 ft
Runway elevation 278 ft Runway displaced threshold 1201 ft Runway heading 268

 AIRPORT FREQUENCIES
Type A/D Name APP/DEP Frequency 118.05 MHZ
Type ATIS Name ATIS Frequency 120.45 MHZ
Type CLD Name CLNC DEL Frequency 127.5 MHZ
Type GND Name GND Frequency 121.7 MHZ
Type OPS Name ARNG OPS Frequency 41 MHZ
Type RDO Name BURLINGTON Frequency 122.2 MHZ
Type TWR Name TWR Frequency 119.5 MHZ
Type UNIC Name UNICOM Frequency 122.95 MHZ

 AIRPORT NEAR NAVIGATION AIDS
Type NDB Name Hawky Frequency 219 KHZ
Type VORTAC Name Albany Frequency 115300 KHZ



Copyright © 2019 Cape Air Virtual

CMS powered by VAM [v2.6.2]